sensor_id;sensor_type;location;lat;lon;timestamp;pressure;altitude;pressure_sealevel;temperature;humidity
72409;BME280;60402;48.082;11.628;2023-07-22T00:00:40;95355.44;;;15.41;100.00
72409;BME280;60402;48.082;11.628;2023-07-22T00:03:27;95368.09;;;15.40;100.00
72409;BME280;60402;48.082;11.628;2023-07-22T00:06:12;95363.75;;;15.11;100.00
72409;BME280;60402;48.082;11.628;2023-07-22T00:08:58;95371.66;;;14.98;100.00
72409;BME280;60402;48.082;11.628;2023-07-22T00:11:44;95373.22;;;14.99;100.00
72409;BME280;60402;48.082;11.628;2023-07-22T00:14:29;95357.94;;;14.87;100.00
72409;BME280;60402;48.082;11.628;2023-07-22T00:17:15;95357.75;;;14.91;100.00
72409;BME280;60402;48.082;11.628;2023-07-22T00:20:01;95367.88;;;14.92;100.00
72409;BME280;60402;48.082;11.628;2023-07-22T00:22:49;95371.66;;;14.98;100.00
72409;BME280;60402;48.082;11.628;2023-07-22T00:25:36;95369.31;;;14.87;100.00
72409;BME280;60402;48.082;11.628;2023-07-22T00:28:21;95358.56;;;14.82;100.00
72409;BME280;60402;48.082;11.628;2023-07-22T00:31:07;95362.66;;;14.81;100.00
72409;BME280;60402;48.082;11.628;2023-07-22T00:33:53;95351.13;;;14.57;100.00
72409;BME280;60402;48.082;11.628;2023-07-22T00:36:39;95362.38;;;14.70;100.00
72409;BME280;60402;48.082;11.628;2023-07-22T00:39:25;95366.31;;;14.54;100.00
72409;BME280;60402;48.082;11.628;2023-07-22T00:42:10;95349.06;;;14.67;100.00
72409;BME280;60402;48.082;11.628;2023-07-22T00:44:56;95346.88;;;14.62;100.00
72409;BME280;60402;48.082;11.628;2023-07-22T00:47:42;95342.94;;;14.50;100.00
72409;BME280;60402;48.082;11.628;2023-07-22T00:50:27;95329.50;;;14.50;100.00
72409;BME280;60402;48.082;11.628;2023-07-22T00:53:13;95338.94;;;14.47;100.00
72409;BME280;60402;48.082;11.628;2023-07-22T00:55:59;95343.22;;;14.43;100.00
72409;BME280;60402;48.082;11.628;2023-07-22T00:58:45;95342.41;;;14.33;100.00
72409;BME280;60402;48.082;11.628;2023-07-22T01:01:30;95331.53;;;14.31;100.00
72409;BME280;60402;48.082;11.628;2023-07-22T01:04:19;95329.97;;;14.30;100.00
72409;BME280;60402;48.082;11.628;2023-07-22T01:07:05;95331.53;;;14.31;100.00
72409;BME280;60402;48.082;11.628;2023-07-22T01:09:56;95303.41;;;14.15;100.00
72409;BME280;60402;48.082;11.628;2023-07-22T01:12:43;95332.31;;;14.32;100.00
72409;BME280;60402;48.082;11.628;2023-07-22T01:15:29;95326.78;;;14.28;100.00
72409;BME280;60402;48.082;11.628;2023-07-22T01:18:14;95311.00;;;14.18;100.00
72409;BME280;60402;48.082;11.628;2023-07-22T01:21:01;95316.03;;;14.23;100.00
72409;BME280;60402;48.082;11.628;2023-07-22T01:23:47;95329.31;;;14.26;100.00
72409;BME280;60402;48.082;11.628;2023-07-22T01:26:33;95334.53;;;14.28;100.00
72409;BME280;60402;48.082;11.628;2023-07-22T01:29:19;95334.66;;;14.24;100.00
72409;BME280;60402;48.082;11.628;2023-07-22T01:32:05;95334.38;;;14.22;100.00
72409;BME280;60402;48.082;11.628;2023-07-22T01:34:50;95343.19;;;14.24;100.00
72409;BME280;60402;48.082;11.628;2023-07-22T01:37:36;95332.28;;;14.14;100.00
72409;BME280;60402;48.082;11.628;2023-07-22T01:40:24;95341.47;;;14.27;100.00
72409;BME280;60402;48.082;11.628;2023-07-22T01:43:10;95332.16;;;14.26;100.00
72409;BME280;60402;48.082;11.628;2023-07-22T01:45:55;95331.19;;;14.20;100.00
72409;BME280;60402;48.082;11.628;2023-07-22T01:48:41;95316.97;;;14.11;100.00
72409;BME280;60402;48.082;11.628;2023-07-22T01:51:27;95326.13;;;14.15;100.00
72409;BME280;60402;48.082;11.628;2023-07-22T01:54:13;95346.81;;;14.16;100.00
72409;BME280;60402;48.082;11.628;2023-07-22T01:56:58;95335.63;;;14.12;100.00
72409;BME280;60402;48.082;11.628;2023-07-22T01:59:44;95322.19;;;14.13;100.00
72409;BME280;60402;48.082;11.628;2023-07-22T02:02:30;95341.31;;;14.30;100.00
72409;BME280;60402;48.082;11.628;2023-07-22T02:05:16;95328.84;;;14.28;100.00
72409;BME280;60402;48.082;11.628;2023-07-22T02:08:02;95345.09;;;14.37;100.00
72409;BME280;60402;48.082;11.628;2023-07-22T02:10:47;95335.16;;;14.32;100.00
72409;BME280;60402;48.082;11.628;2023-07-22T02:13:34;95346.69;;;14.38;100.00
72409;BME280;60402;48.082;11.628;2023-07-22T02:16:20;95335.94;;;14.42;100.00
72409;BME280;60402;48.082;11.628;2023-07-22T02:19:05;95347.03;;;14.49;100.00
72409;BME280;60402;48.082;11.628;2023-07-22T02:21:51;95335.47;;;14.34;100.00
72409;BME280;60402;48.082;11.628;2023-07-22T02:24:37;95347.47;;;14.38;100.00
72409;BME280;60402;48.082;11.628;2023-07-22T02:27:23;95339.25;;;14.22;100.00
72409;BME280;60402;48.082;11.628;2023-07-22T02:30:09;95331.53;;;14.22;100.00
72409;BME280;60402;48.082;11.628;2023-07-22T02:32:55;95346.03;;;14.33;100.00
72409;BME280;60402;48.082;11.628;2023-07-22T02:35:42;95348.09;;;14.33;100.00
72409;BME280;60402;48.082;11.628;2023-07-22T02:38:27;95343.03;;;14.19;100.00
72409;BME280;60402;48.082;11.628;2023-07-22T02:41:13;95343.81;;;14.19;100.00
72409;BME280;60402;48.082;11.628;2023-07-22T02:43:58;95348.53;;;14.04;100.00
72409;BME280;60402;48.082;11.628;2023-07-22T02:46:44;95330.19;;;13.87;100.00
72409;BME280;60402;48.082;11.628;2023-07-22T02:49:30;95346.31;;;13.90;100.00
72409;BME280;60402;48.082;11.628;2023-07-22T02:52:15;95346.78;;;14.06;100.00
72409;BME280;60402;48.082;11.628;2023-07-22T02:57:51;95341.16;;;14.34;100.00
72409;BME280;60402;48.082;11.628;2023-07-22T03:00:37;95346.66;;;14.19;100.00
72409;BME280;60402;48.082;11.628;2023-07-22T03:03:23;95352.97;;;14.14;100.00
72409;BME280;60402;48.082;11.628;2023-07-22T03:06:08;95354.72;;;14.12;100.00
72409;BME280;60402;48.082;11.628;2023-07-22T03:08:54;95359.44;;;14.15;100.00
72409;BME280;60402;48.082;11.628;2023-07-22T03:11:40;95351.22;;;13.98;100.00
72409;BME280;60402;48.082;11.628;2023-07-22T03:14:26;95357.66;;;13.90;100.00
72409;BME280;60402;48.082;11.628;2023-07-22T03:17:11;95351.03;;;13.84;100.00
72409;BME280;60402;48.082;11.628;2023-07-22T03:20:03;95366.84;;;13.94;100.00
72409;BME280;60402;48.082;11.628;2023-07-22T03:22:55;95351.03;;;13.84;100.00
72409;BME280;60402;48.082;11.628;2023-07-22T03:25:41;95363.38;;;13.99;100.00
72409;BME280;60402;48.082;11.628;2023-07-22T03:28:27;95352.91;;;13.87;100.00
72409;BME280;60402;48.082;11.628;2023-07-22T03:31:12;95356.88;;;13.89;100.00
72409;BME280;60402;48.082;11.628;2023-07-22T03:33:58;95346.75;;;13.79;100.00
72409;BME280;60402;48.082;11.628;2023-07-22T03:36:44;95352.72;;;13.72;100.00
72409;BME280;60402;48.082;11.628;2023-07-22T03:39:29;95369.00;;;13.80;100.00
72409;BME280;60402;48.082;11.628;2023-07-22T03:42:15;95375.31;;;13.85;100.00
72409;BME280;60402;48.082;11.628;2023-07-22T03:45:00;95368.78;;;13.66;100.00
72409;BME280;60402;48.082;11.628;2023-07-22T03:47:50;95376.31;;;13.60;100.00
72409;BME280;60402;48.082;11.628;2023-07-22T03:50:36;95367.97;;;13.56;100.00
72409;BME280;60402;48.082;11.628;2023-07-22T03:53:22;95362.09;;;13.41;100.00
72409;BME280;60402;48.082;11.628;2023-07-22T03:56:07;95360.28;;;13.35;100.00
72409;BME280;60402;48.082;11.628;2023-07-22T03:58:53;95367.88;;;13.38;100.00
72409;BME280;60402;48.082;11.628;2023-07-22T04:01:39;95368.63;;;13.29;100.00
72409;BME280;60402;48.082;11.628;2023-07-22T04:04:24;95353.97;;;13.30;100.00
72409;BME280;60402;48.082;11.628;2023-07-22T04:07:10;95368.19;;;13.40;100.00
72409;BME280;60402;48.082;11.628;2023-07-22T04:09:56;95366.34;;;13.46;100.00
72409;BME280;60402;48.082;11.628;2023-07-22T04:12:41;95368.47;;;13.64;100.00
72409;BME280;60402;48.082;11.628;2023-07-22T04:15:27;95360.34;;;13.84;100.00
72409;BME280;60402;48.082;11.628;2023-07-22T04:18:15;95391.81;;;14.08;100.00
72409;BME280;60402;48.082;11.628;2023-07-22T04:21:01;95399.19;;;13.96;100.00
72409;BME280;60402;48.082;11.628;2023-07-22T04:23:46;95374.38;;;13.88;100.00
72409;BME280;60402;48.082;11.628;2023-07-22T04:26:32;95385.78;;;14.06;100.00
72409;BME280;60402;48.082;11.628;2023-07-22T04:29:18;95388.50;;;14.19;100.00
72409;BME280;60402;48.082;11.628;2023-07-22T04:32:04;95366.56;;;14.19;100.00
72409;BME280;60402;48.082;11.628;2023-07-22T04:34:50;95387.75;;;14.46;100.00
72409;BME280;60402;48.082;11.628;2023-07-22T04:37:35;95366.44;;;14.41;100.00
72409;BME280;60402;48.082;11.628;2023-07-22T04:40:21;95373.72;;;14.61;100.00
72409;BME280;60402;48.082;11.628;2023-07-22T04:43:07;95373.41;;;14.68;100.00
72409;BME280;60402;48.082;11.628;2023-07-22T04:45:52;95366.28;;;14.72;100.00
72409;BME280;60402;48.082;11.628;2023-07-22T04:48:38;95387.47;;;14.90;100.00
72409;BME280;60402;48.082;11.628;2023-07-22T04:51:24;95386.34;;;15.05;100.00
72409;BME280;60402;48.082;11.628;2023-07-22T04:54:09;95382.41;;;15.03;100.00
72409;BME280;60402;48.082;11.628;2023-07-22T04:56:55;95377.00;;;15.14;100.00
72409;BME280;60402;48.082;11.628;2023-07-22T04:59:40;95390.28;;;15.17;100.00
72409;BME280;60402;48.082;11.628;2023-07-22T05:02:26;95393.13;;;15.26;100.00
72409;BME280;60402;48.082;11.628;2023-07-22T05:05:12;95380.47;;;15.18;100.00
72409;BME280;60402;48.082;11.628;2023-07-22T05:07:58;95387.41;;;15.26;100.00
72409;BME280;60402;48.082;11.628;2023-07-22T05:10:44;95385.47;;;15.42;100.00
72409;BME280;60402;48.082;11.628;2023-07-22T05:13:30;95389.06;;;15.70;100.00
72409;BME280;60402;48.082;11.628;2023-07-22T05:16:16;95377.44;;;15.82;100.00
72409;BME280;60402;48.082;11.628;2023-07-22T05:19:01;95375.88;;;16.15;100.00
72409;BME280;60402;48.082;11.628;2023-07-22T05:21:47;95389.75;;;16.22;100.00
72409;BME280;60402;48.082;11.628;2023-07-22T05:24:33;95393.81;;;16.30;100.00
72409;BME280;60402;48.082;11.628;2023-07-22T05:27:18;95389.41;;;16.29;100.00
72409;BME280;60402;48.082;11.628;2023-07-22T05:30:05;95379.91;;;16.23;100.00
72409;BME280;60402;48.082;11.628;2023-07-22T05:32:54;95370.78;;;16.43;100.00
72409;BME280;60402;48.082;11.628;2023-07-22T05:35:39;95383.56;;;16.71;100.00
72409;BME280;60402;48.082;11.628;2023-07-22T05:38:25;95378.78;;;16.77;100.00
72409;BME280;60402;48.082;11.628;2023-07-22T05:41:11;95389.94;;;16.90;100.00
72409;BME280;60402;48.082;11.628;2023-07-22T05:43:56;95393.38;;;16.94;100.00
72409;BME280;60402;48.082;11.628;2023-07-22T05:46:42;95384.00;;;16.94;100.00
72409;BME280;60402;48.082;11.628;2023-07-22T05:49:28;95390.47;;;17.03;100.00
72409;BME280;60402;48.082;11.628;2023-07-22T05:52:13;95379.97;;;16.85;100.00
72409;BME280;60402;48.082;11.628;2023-07-22T05:54:59;95393.50;;;17.00;100.00
72409;BME280;60402;48.082;11.628;2023-07-22T05:57:45;95409.69;;;17.32;100.00
72409;BME280;60402;48.082;11.628;2023-07-22T06:00:33;95404.56;;;17.36;100.00
72409;BME280;60402;48.082;11.628;2023-07-22T06:03:19;95398.66;;;17.40;100.00
72409;BME280;60402;48.082;11.628;2023-07-22T06:06:06;95404.47;;;17.60;100.00
72409;BME280;60402;48.082;11.628;2023-07-22T06:08:52;95395.13;;;17.60;100.00
72409;BME280;60402;48.082;11.628;2023-07-22T06:11:37;95412.19;;;17.84;99.43
72409;BME280;60402;48.082;11.628;2023-07-22T06:14:23;95394.97;;;18.13;97.47
72409;BME280;60402;48.082;11.628;2023-07-22T06:17:08;95417.16;;;18.54;93.86
72409;BME280;60402;48.082;11.628;2023-07-22T06:19:54;95406.31;;;18.78;90.07
72409;BME280;60402;48.082;11.628;2023-07-22T06:22:40;95414.19;;;18.83;91.04
72409;BME280;60402;48.082;11.628;2023-07-22T06:25:25;95410.22;;;18.81;89.50
72409;BME280;60402;48.082;11.628;2023-07-22T06:28:11;95417.09;;;19.09;88.16
72409;BME280;60402;48.082;11.628;2023-07-22T06:30:57;95409.94;;;19.20;87.43
72409;BME280;60402;48.082;11.628;2023-07-22T06:33:43;95421.28;;;19.34;85.34
72409;BME280;60402;48.082;11.628;2023-07-22T06:36:28;95426.34;;;19.45;82.50
72409;BME280;60402;48.082;11.628;2023-07-22T06:39:14;95429.41;;;20.20;80.65
72409;BME280;60402;48.082;11.628;2023-07-22T06:42:00;95416.66;;;20.58;77.32
72409;BME280;60402;48.082;11.628;2023-07-22T06:44:45;95423.19;;;20.27;77.06
72409;BME280;60402;48.082;11.628;2023-07-22T06:47:31;95418.78;;;20.31;76.06
72409;BME280;60402;48.082;11.628;2023-07-22T06:50:17;95421.97;;;20.39;74.78
72409;BME280;60402;48.082;11.628;2023-07-22T06:53:02;95428.97;;;20.32;73.87
72409;BME280;60402;48.082;11.628;2023-07-22T06:55:50;95433.56;;;20.19;74.10
72409;BME280;60402;48.082;11.628;2023-07-22T06:58:36;95425.22;;;20.52;74.79
72409;BME280;60402;48.082;11.628;2023-07-22T07:01:22;95422.47;;;21.29;71.03
72409;BME280;60402;48.082;11.628;2023-07-22T07:04:08;95408.41;;;21.36;69.04
72409;BME280;60402;48.082;11.628;2023-07-22T07:06:54;95419.69;;;21.46;68.70
72409;BME280;60402;48.082;11.628;2023-07-22T07:09:39;95425.75;;;21.87;66.08
72409;BME280;60402;48.082;11.628;2023-07-22T07:12:25;95434.69;;;22.45;62.96
72409;BME280;60402;48.082;11.628;2023-07-22T07:15:11;95425.00;;;22.42;62.77
72409;BME280;60402;48.082;11.628;2023-07-22T07:17:57;95435.22;;;22.15;63.14
72409;BME280;60402;48.082;11.628;2023-07-22T07:20:42;95419.47;;;21.72;60.87
72409;BME280;60402;48.082;11.628;2023-07-22T07:23:28;95436.53;;;22.20;58.67
72409;BME280;60402;48.082;11.628;2023-07-22T07:26:14;95445.91;;;23.52;54.17
72409;BME280;60402;48.082;11.628;2023-07-22T07:28:59;95430.38;;;26.22;48.85
72409;BME280;60402;48.082;11.628;2023-07-22T07:31:45;95435.16;;;28.24;43.92
72409;BME280;60402;48.082;11.628;2023-07-22T07:34:31;95448.13;;;29.85;40.39
72409;BME280;60402;48.082;11.628;2023-07-22T07:37:16;95431.31;;;31.19;37.35
72409;BME280;60402;48.082;11.628;2023-07-22T07:40:02;95444.84;;;32.00;34.82
72409;BME280;60402;48.082;11.628;2023-07-22T07:42:48;95440.31;;;32.80;33.41
72409;BME280;60402;48.082;11.628;2023-07-22T07:45:39;95455.50;;;33.11;33.09
72409;BME280;60402;48.082;11.628;2023-07-22T07:48:25;95447.06;;;33.40;31.44
72409;BME280;60402;48.082;11.628;2023-07-22T07:51:12;95450.16;;;33.85;29.95
72409;BME280;60402;48.082;11.628;2023-07-22T07:53:59;95462.13;;;33.62;30.87
72409;BME280;60402;48.082;11.628;2023-07-22T07:56:45;95459.72;;;33.50;30.99
72409;BME280;60402;48.082;11.628;2023-07-22T07:59:30;95474.00;;;34.68;29.57
72409;BME280;60402;48.082;11.628;2023-07-22T08:02:16;95457.00;;;34.04;28.88
72409;BME280;60402;48.082;11.628;2023-07-22T08:05:02;95457.91;;;34.42;28.85
72409;BME280;60402;48.082;11.628;2023-07-22T08:07:47;95453.78;;;34.72;28.71
72409;BME280;60402;48.082;11.628;2023-07-22T08:10:33;95458.66;;;34.87;27.89
72409;BME280;60402;48.082;11.628;2023-07-22T08:13:19;95449.53;;;34.82;27.92
72409;BME280;60402;48.082;11.628;2023-07-22T08:16:09;95461.84;;;34.98;28.15
72409;BME280;60402;48.082;11.628;2023-07-22T08:18:55;95469.75;;;34.17;29.05
72409;BME280;60402;48.082;11.628;2023-07-22T08:21:41;95452.91;;;33.40;28.86
72409;BME280;60402;48.082;11.628;2023-07-22T08:24:27;95460.13;;;32.64;30.71
72409;BME280;60402;48.082;11.628;2023-07-22T08:27:12;95446.09;;;32.95;30.17
72409;BME280;60402;48.082;11.628;2023-07-22T08:29:58;95455.84;;;32.17;30.37
72409;BME280;60402;48.082;11.628;2023-07-22T08:32:43;95452.13;;;32.24;30.36
72409;BME280;60402;48.082;11.628;2023-07-22T08:35:29;95452.72;;;30.91;32.26
72409;BME280;60402;48.082;11.628;2023-07-22T08:38:15;95456.13;;;30.43;33.46
72409;BME280;60402;48.082;11.628;2023-07-22T08:41:00;95458.41;;;30.29;34.16
72409;BME280;60402;48.082;11.628;2023-07-22T08:43:46;95459.31;;;29.44;34.80
72409;BME280;60402;48.082;11.628;2023-07-22T08:46:33;95460.50;;;29.20;35.07
72409;BME280;60402;48.082;11.628;2023-07-22T08:49:19;95448.75;;;29.05;35.77
72409;BME280;60402;48.082;11.628;2023-07-22T08:52:05;95452.06;;;28.46;37.00
72409;BME280;60402;48.082;11.628;2023-07-22T08:54:51;95460.09;;;28.53;37.06
72409;BME280;60402;48.082;11.628;2023-07-22T08:57:38;95461.19;;;28.30;36.44
72409;BME280;60402;48.082;11.628;2023-07-22T09:00:24;95452.94;;;28.55;36.21
72409;BME280;60402;48.082;11.628;2023-07-22T09:03:11;95451.09;;;28.86;36.34
72409;BME280;60402;48.082;11.628;2023-07-22T09:05:56;95447.84;;;28.47;35.33
72409;BME280;60402;48.082;11.628;2023-07-22T09:08:42;95444.78;;;28.19;35.62
72409;BME280;60402;48.082;11.628;2023-07-22T09:11:28;95456.06;;;27.48;35.91
72409;BME280;60402;48.082;11.628;2023-07-22T09:14:15;95443.31;;;27.91;37.14
72409;BME280;60402;48.082;11.628;2023-07-22T09:17:01;95441.91;;;27.71;38.92
72409;BME280;60402;48.082;11.628;2023-07-22T09:19:52;95446.13;;;27.44;39.97
72409;BME280;60402;48.082;11.628;2023-07-22T09:22:38;95430.59;;;27.68;37.61
72409;BME280;60402;48.082;11.628;2023-07-22T09:25:25;95442.22;;;27.68;38.45
72409;BME280;60402;48.082;11.628;2023-07-22T09:28:11;95435.53;;;27.20;39.10
72409;BME280;60402;48.082;11.628;2023-07-22T09:31:01;95437.16;;;27.02;38.82
72409;BME280;60402;48.082;11.628;2023-07-22T09:33:48;95426.16;;;27.40;38.60
72409;BME280;60402;48.082;11.628;2023-07-22T09:36:49;95438.25;;;26.86;37.98
72409;BME280;60402;48.082;11.628;2023-07-22T09:39:35;95434.91;;;26.82;39.35
72409;BME280;60402;48.082;11.628;2023-07-22T09:42:25;95425.63;;;26.70;38.36
72409;BME280;60402;48.082;11.628;2023-07-22T09:45:11;95407.72;;;26.20;39.14
72409;BME280;60402;48.082;11.628;2023-07-22T09:47:58;95428.84;;;25.40;39.50
72409;BME280;60402;48.082;11.628;2023-07-22T09:50:43;95426.16;;;24.74;38.26
72409;BME280;60402;48.082;11.628;2023-07-22T09:53:29;95421.91;;;24.81;39.83
72409;BME280;60402;48.082;11.628;2023-07-22T09:56:15;95415.34;;;25.05;40.37
72409;BME280;60402;48.082;11.628;2023-07-22T09:59:04;95394.97;;;25.16;39.55
72409;BME280;60402;48.082;11.628;2023-07-22T10:01:51;95419.16;;;25.18;38.52
72409;BME280;60402;48.082;11.628;2023-07-22T10:04:40;95393.63;;;25.41;38.36
72409;BME280;60402;48.082;11.628;2023-07-22T10:07:26;95412.53;;;25.42;38.73
72409;BME280;60402;48.082;11.628;2023-07-22T10:10:38;95407.06;;;25.39;37.84
72409;BME280;60402;48.082;11.628;2023-07-22T10:13:31;95421.28;;;25.37;38.74
72409;BME280;60402;48.082;11.628;2023-07-22T10:16:20;95382.56;;;25.21;39.32
72409;BME280;60402;48.082;11.628;2023-07-22T10:19:11;95422.56;;;25.60;37.54
72409;BME280;60402;48.082;11.628;2023-07-22T10:21:57;95413.22;;;25.30;38.19
72409;BME280;60402;48.082;11.628;2023-07-22T10:24:43;95414.78;;;25.06;39.53
72409;BME280;60402;48.082;11.628;2023-07-22T10:27:30;95407.97;;;25.28;38.97
72409;BME280;60402;48.082;11.628;2023-07-22T10:30:17;95416.84;;;25.11;38.67
72409;BME280;60402;48.082;11.628;2023-07-22T10:33:03;95410.47;;;24.94;38.38
72409;BME280;60402;48.082;11.628;2023-07-22T10:36:21;95406.31;;;25.14;38.18
72409;BME280;60402;48.082;11.628;2023-07-22T10:39:25;95408.06;;;25.22;38.71
72409;BME280;60402;48.082;11.628;2023-07-22T10:42:23;95411.75;;;25.42;39.17
72409;BME280;60402;48.082;11.628;2023-07-22T10:45:26;95403.56;;;25.21;37.49
72409;BME280;60402;48.082;11.628;2023-07-22T10:48:13;95410.63;;;25.02;37.39
72409;BME280;60402;48.082;11.628;2023-07-22T10:51:05;95401.59;;;24.86;38.00
72409;BME280;60402;48.082;11.628;2023-07-22T10:53:51;95391.72;;;25.01;37.84
72409;BME280;60402;48.082;11.628;2023-07-22T10:56:37;95380.63;;;25.05;38.75
72409;BME280;60402;48.082;11.628;2023-07-22T10:59:26;95388.06;;;25.43;39.05
72409;BME280;60402;48.082;11.628;2023-07-22T11:02:23;95375.31;;;25.33;39.11
72409;BME280;60402;48.082;11.628;2023-07-22T11:05:11;95380.06;;;24.63;39.58
72409;BME280;60402;48.082;11.628;2023-07-22T11:08:03;95376.25;;;24.49;38.15
72409;BME280;60402;48.082;11.628;2023-07-22T11:10:53;95375.06;;;24.63;40.15
72409;BME280;60402;48.082;11.628;2023-07-22T11:13:41;95363.44;;;24.69;40.30
72409;BME280;60402;48.082;11.628;2023-07-22T11:16:28;95364.94;;;24.51;40.63
72409;BME280;60402;48.082;11.628;2023-07-22T11:19:15;95365.59;;;24.87;39.91
72409;BME280;60402;48.082;11.628;2023-07-22T11:22:01;95367.28;;;24.77;39.60
72409;BME280;60402;48.082;11.628;2023-07-22T11:24:47;95348.81;;;24.86;39.21
72409;BME280;60402;48.082;11.628;2023-07-22T11:27:33;95343.88;;;24.81;40.49
72409;BME280;60402;48.082;11.628;2023-07-22T11:30:18;95343.56;;;25.09;41.14
72409;BME280;60402;48.082;11.628;2023-07-22T11:33:04;95347.72;;;25.32;39.44
72409;BME280;60402;48.082;11.628;2023-07-22T11:35:50;95348.59;;;25.46;38.41
72409;BME280;60402;48.082;11.628;2023-07-22T11:38:36;95332.00;;;25.46;36.46
72409;BME280;60402;48.082;11.628;2023-07-22T11:41:24;95332.31;;;25.24;36.90
72409;BME280;60402;48.082;11.628;2023-07-22T11:44:11;95335.66;;;24.66;38.46
72409;BME280;60402;48.082;11.628;2023-07-22T11:47:02;95336.53;;;24.80;38.36
72409;BME280;60402;48.082;11.628;2023-07-22T11:49:49;95335.44;;;24.58;38.62
72409;BME280;60402;48.082;11.628;2023-07-22T11:52:34;95316.38;;;24.93;39.18
72409;BME280;60402;48.082;11.628;2023-07-22T11:55:22;95316.31;;;25.23;39.14
72409;BME280;60402;48.082;11.628;2023-07-22T11:58:08;95308.97;;;25.22;38.06
72409;BME280;60402;48.082;11.628;2023-07-22T12:01:05;95315.34;;;25.34;38.04
72409;BME280;60402;48.082;11.628;2023-07-22T12:03:55;95315.53;;;25.22;37.25
72409;BME280;60402;48.082;11.628;2023-07-22T12:06:41;95306.91;;;25.36;37.93
72409;BME280;60402;48.082;11.628;2023-07-22T12:09:27;95304.84;;;25.49;37.93
72409;BME280;60402;48.082;11.628;2023-07-22T12:12:13;95303.09;;;25.46;38.60
72409;BME280;60402;48.082;11.628;2023-07-22T12:18:01;95308.69;;;25.77;37.22
72409;BME280;60402;48.082;11.628;2023-07-22T12:20:47;95305.41;;;25.67;37.23
72409;BME280;60402;48.082;11.628;2023-07-22T12:23:33;95304.69;;;25.80;36.45
72409;BME280;60402;48.082;11.628;2023-07-22T12:26:19;95303.94;;;25.79;36.27
72409;BME280;60402;48.082;11.628;2023-07-22T12:29:05;95295.25;;;25.92;35.69
72409;BME280;60402;48.082;11.628;2023-07-22T12:31:50;95284.03;;;25.89;36.36
72409;BME280;60402;48.082;11.628;2023-07-22T12:34:36;95289.47;;;25.92;36.14
72409;BME280;60402;48.082;11.628;2023-07-22T12:37:21;95290.81;;;25.91;36.38
72409;BME280;60402;48.082;11.628;2023-07-22T12:40:07;95288.63;;;25.46;36.18
72409;BME280;60402;48.082;11.628;2023-07-22T12:42:53;95288.63;;;25.28;37.07
72409;BME280;60402;48.082;11.628;2023-07-22T12:45:39;95280.69;;;24.90;39.00
72409;BME280;60402;48.082;11.628;2023-07-22T12:48:25;95292.06;;;25.07;37.71
72409;BME280;60402;48.082;11.628;2023-07-22T12:51:10;95277.28;;;25.30;37.95
72409;BME280;60402;48.082;11.628;2023-07-22T12:53:56;95266.88;;;25.40;36.63
72409;BME280;60402;48.082;11.628;2023-07-22T12:56:42;95274.56;;;25.37;36.61
72409;BME280;60402;48.082;11.628;2023-07-22T12:59:28;95264.69;;;25.46;36.79
72409;BME280;60402;48.082;11.628;2023-07-22T13:02:16;95272.06;;;25.28;37.70
72409;BME280;60402;48.082;11.628;2023-07-22T13:05:01;95282.09;;;25.03;36.62
72409;BME280;60402;48.082;11.628;2023-07-22T13:07:47;95271.56;;;25.05;37.53
72409;BME280;60402;48.082;11.628;2023-07-22T13:10:33;95272.91;;;25.04;38.24
72409;BME280;60402;48.082;11.628;2023-07-22T13:13:20;95264.38;;;25.12;37.01
72409;BME280;60402;48.082;11.628;2023-07-22T13:16:06;95276.50;;;25.10;37.14
72409;BME280;60402;48.082;11.628;2023-07-22T13:18:51;95258.16;;;25.27;37.36
72409;BME280;60402;48.082;11.628;2023-07-22T13:21:37;95250.94;;;25.33;37.34
72409;BME280;60402;48.082;11.628;2023-07-22T13:24:23;95249.47;;;25.45;37.80
72409;BME280;60402;48.082;11.628;2023-07-22T13:27:08;95261.53;;;25.63;36.42
72409;BME280;60402;48.082;11.628;2023-07-22T13:29:54;95253.88;;;25.65;35.98
72409;BME280;60402;48.082;11.628;2023-07-22T13:32:39;95260.50;;;25.79;35.88
72409;BME280;60402;48.082;11.628;2023-07-22T13:35:25;95247.03;;;25.82;36.67
72409;BME280;60402;48.082;11.628;2023-07-22T13:38:11;95244.81;;;25.56;37.50
72409;BME280;60402;48.082;11.628;2023-07-22T13:40:57;95251.72;;;25.85;37.29
72409;BME280;60402;48.082;11.628;2023-07-22T13:43:42;95243.25;;;25.87;37.12
72409;BME280;60402;48.082;11.628;2023-07-22T13:46:28;95251.88;;;25.73;37.28
72409;BME280;60402;48.082;11.628;2023-07-22T13:49:13;95241.06;;;25.61;37.14
72409;BME280;60402;48.082;11.628;2023-07-22T13:52:00;95250.31;;;25.72;37.46
72409;BME280;60402;48.082;11.628;2023-07-22T13:54:46;95255.84;;;25.57;38.24
72409;BME280;60402;48.082;11.628;2023-07-22T13:57:38;95246.59;;;25.59;37.52
72409;BME280;60402;48.082;11.628;2023-07-22T14:00:24;95236.88;;;25.24;37.08
72409;BME280;60402;48.082;11.628;2023-07-22T14:03:10;95240.72;;;25.32;37.38
72409;BME280;60402;48.082;11.628;2023-07-22T14:05:55;95253.66;;;25.44;37.07
72409;BME280;60402;48.082;11.628;2023-07-22T14:08:41;95258.13;;;25.45;36.99
72409;BME280;60402;48.082;11.628;2023-07-22T14:11:27;95268.53;;;25.35;37.44
72409;BME280;60402;48.082;11.628;2023-07-22T14:14:13;95247.19;;;25.38;36.38
72409;BME280;60402;48.082;11.628;2023-07-22T14:16:58;95253.91;;;25.46;36.19
72409;BME280;60402;48.082;11.628;2023-07-22T14:19:44;95244.81;;;25.56;35.49
72409;BME280;60402;48.082;11.628;2023-07-22T14:22:29;95243.03;;;25.53;35.46
72409;BME280;60402;48.082;11.628;2023-07-22T14:25:16;95244.53;;;25.72;33.13
72409;BME280;60402;48.082;11.628;2023-07-22T14:28:01;95239.50;;;25.73;34.08
72409;BME280;60402;48.082;11.628;2023-07-22T14:30:47;95248.50;;;25.56;34.39